Hemiksem, Belgium
Current Conditions -  °F | °C
As of 5:20 AM on Wednesday 22 Oct 2014 (Local Time) from EBAW Reporting Station
Rain Showers Rain Showers  
Wind Chill: 46°   Ceiling: 3200
Heat Index: 46°   Visibility: 6mi
Dew Point: 43°   Wind: 3mph
Humidity: 87%   Direction: 290°WNW
Pressure: 30.03"   Gusts: NA
Location:  51.14°N, 4.34°E
Report Text: EBAW 220320Z AUTO 29003KT 240V320 9999 -SHRA OVC032/// 08/06 Q1017 RESHRA
Loading
Personal Weather Stations






























Interactive Weather Map
Tropical Storm Tracking
New forecast layout! Learn more

10-Day Weather Forecast

Advertisements
Track Severe Weather on mobile